Time;durP1;ratioP1;P1;durP2;ratioP2;P2;SDS_P1;SDS_P2;PMS_P1;PMS_P2;Temp;Humidity;BMP_temperature;BMP_pressure;BME280_temperature;BME280_humidity;BME280_pressure;Samples;Min_cycle;Max_cycle;Signal;HPM_P1;HPM_P2
2022/11/17 00:01:44;;;;;;;14.30;6.30;;;8.20;99.90;;;;;;5032931;28;20237;-91
2022/11/17 00:04:15;;;;;;;10.23;7.43;;;8.20;99.90;;;;;;5028500;28;20244;-88
2022/11/17 00:06:48;;;;;;;10.87;7.37;;;8.10;99.90;;;;;;5020989;28;20210;-90
2022/11/17 00:09:19;;;;;;;11.47;8.17;;;8.00;99.90;;;;;;5017979;28;20288;-90
2022/11/17 00:14:49;;;;;;;10.70;7.70;;;7.80;99.90;;;;;;4968958;28;20239;-89
2022/11/17 00:17:19;;;;;;;12.67;6.77;;;7.60;99.90;;;;;;5017995;28;20241;-89
2022/11/17 00:22:51;;;;;;;9.23;7.53;;;7.40;99.90;;;;;;4976633;28;20650;-90
2022/11/17 00:25:21;;;;;;;11.63;7.73;;;7.20;99.90;;;;;;5008736;28;20213;-89
2022/11/17 00:27:52;;;;;;;10.47;7.50;;;7.10;99.90;;;;;;5012308;28;20242;-89
2022/11/17 00:36:00;;;;;;;15.47;9.23;;;6.80;99.90;;;;;;5013197;28;20214;-90
2022/11/17 00:38:33;;;;;;;12.37;7.97;;;6.70;99.90;;;;;;5013488;28;20245;-87
2022/11/17 00:41:03;;;;;;;10.90;7.90;;;6.60;99.90;;;;;;5007850;28;20215;-89
2022/11/17 00:43:34;;;;;;;8.70;6.83;;;6.50;99.90;;;;;;4998990;28;20285;-90
2022/11/17 00:46:05;;;;;;;14.30;6.80;;;6.40;99.90;;;;;;5008876;28;20272;-89
2022/11/17 00:48:36;;;;;;;8.93;6.70;;;6.40;99.90;;;;;;5002364;28;20285;-89
2022/11/17 00:51:07;;;;;;;10.83;7.77;;;6.30;99.90;;;;;;5002272;28;20210;-90
2022/11/17 00:53:40;;;;;;;9.87;6.37;;;6.30;99.90;;;;;;5008495;28;20380;-90
2022/11/17 00:56:11;;;;;;;12.77;6.47;;;6.20;99.90;;;;;;5010674;28;20292;-89
2022/11/17 00:58:41;;;;;;;7.97;5.90;;;6.20;99.90;;;;;;5007039;28;20615;-89
2022/11/17 01:01:13;;;;;;;9.80;6.20;;;6.10;99.90;;;;;;5008044;28;20283;-90
2022/11/17 01:03:44;;;;;;;9.07;6.57;;;6.00;99.90;;;;;;5007886;28;20216;-89
2022/11/17 01:06:17;;;;;;;8.60;5.93;;;5.90;99.90;;;;;;5013225;28;20260;-88
2022/11/17 01:08:49;;;;;;;9.13;6.40;;;5.80;99.90;;;;;;5016669;28;20999;-89
2022/11/17 01:11:20;;;;;;;11.10;6.13;;;5.80;99.90;;;;;;5016144;28;20202;-89
2022/11/17 01:13:54;;;;;;;7.73;5.70;;;5.70;99.90;;;;;;5008973;28;20234;-89
2022/11/17 01:16:26;;;;;;;9.23;6.00;;;5.60;99.90;;;;;;5012961;28;20206;-89
2022/11/17 01:18:56;;;;;;;9.70;6.67;;;5.50;99.90;;;;;;5013328;28;20220;-89
2022/11/17 01:21:28;;;;;;;8.90;6.37;;;5.50;99.90;;;;;;5016494;28;20638;-89
2022/11/17 01:24:02;;;;;;;10.73;7.03;;;5.40;99.90;;;;;;5015951;28;20233;-90
2022/11/17 01:26:34;;;;;;;8.70;6.40;;;5.40;99.90;;;;;;5012692;28;20226;-89
2022/11/17 01:29:06;;;;;;;12.93;6.87;;;5.30;99.90;;;;;;5009657;28;20293;-88
2022/11/17 01:31:40;;;;;;;9.70;6.57;;;5.20;99.90;;;;;;5008270;28;20237;-89
2022/11/17 01:34:11;;;;;;;9.60;6.80;;;5.20;99.90;;;;;;5012675;28;20230;-90
2022/11/17 01:39:34;;;;;;;8.80;6.13;;;5.10;99.90;;;;;;4996901;28;20290;-89
2022/11/17 01:42:10;;;;;;;10.70;5.70;;;5.00;99.90;;;;;;5007011;28;20202;-89
2022/11/17 01:44:59;;;;;;;10.73;5.77;;;4.90;99.90;;;;;;5014806;28;21026;-90
2022/11/17 01:47:40;;;;;;;6.53;4.90;;;4.90;99.90;;;;;;5003414;28;20229;-89
2022/11/17 01:50:19;;;;;;;6.10;5.00;;;4.80;99.90;;;;;;5016950;28;20648;-90
2022/11/17 01:52:52;;;;;;;6.67;5.30;;;4.80;99.90;;;;;;5012779;28;20237;-89
2022/11/17 01:55:28;;;;;;;6.77;4.93;;;4.70;99.90;;;;;;5011221;28;20304;-89
2022/11/17 01:58:03;;;;;;;7.60;4.87;;;4.60;99.90;;;;;;5016680;28;20237;-89
2022/11/17 02:00:34;;;;;;;6.87;5.43;;;4.60;99.90;;;;;;5013444;28;20233;-89
2022/11/17 02:03:06;;;;;;;6.33;4.50;;;4.50;99.90;;;;;;5013207;28;20202;-89
2022/11/17 02:05:44;;;;;;;6.50;5.00;;;4.50;99.90;;;;;;5013635;28;20286;-90
2022/11/17 02:08:15;;;;;;;6.90;5.23;;;4.40;99.90;;;;;;5013019;28;20260;-90
2022/11/17 02:10:48;;;;;;;6.67;5.50;;;4.40;99.90;;;;;;5014539;28;20233;-89
2022/11/17 02:13:21;;;;;;;7.60;5.30;;;4.40;99.90;;;;;;5016147;28;20201;-88
2022/11/17 02:15:51;;;;;;;9.87;5.17;;;4.30;99.90;;;;;;5022359;28;20272;-89
2022/11/17 02:18:22;;;;;;;7.33;5.70;;;4.20;99.90;;;;;;5014624;28;20312;-88
2022/11/17 02:21:13;;;;;;;8.20;5.87;;;4.20;99.90;;;;;;5016824;28;20229;-90
2022/11/17 02:24:13;;;;;;;12.20;7.40;;;4.10;99.90;;;;;;5015086;28;20205;-89
2022/11/17 02:27:19;;;;;;;13.80;7.17;;;4.10;99.90;;;;;;5015864;28;20288;-90
2022/11/17 02:29:59;;;;;;;11.97;6.40;;;4.10;99.90;;;;;;5002734;28;20312;-91
2022/11/17 02:32:37;;;;;;;12.60;7.03;;;4.00;99.90;;;;;;5010534;28;20325;-92
2022/11/17 02:35:15;;;;;;;13.70;6.07;;;3.90;99.90;;;;;;5007909;28;20276;-90
2022/11/17 02:37:56;;;;;;;13.13;6.20;;;3.90;99.90;;;;;;5013458;28;20243;-91
2022/11/17 02:40:32;;;;;;;8.53;5.70;;;3.90;99.90;;;;;;5010765;28;20236;-93
2022/11/17 02:46:03;;;;;;;8.13;5.87;;;3.90;99.90;;;;;;5011550;28;20210;-94
2022/11/17 02:48:38;;;;;;;10.13;5.40;;;3.90;99.90;;;;;;5010767;28;20229;-95
2022/11/17 02:51:13;;;;;;;8.33;5.50;;;3.80;99.90;;;;;;5014445;28;20712;-95
2022/11/17 02:53:46;;;;;;;8.90;5.70;;;3.70;99.90;;;;;;5011158;28;20651;-94
2022/11/17 02:56:17;;;;;;;7.00;5.60;;;3.70;99.90;;;;;;5014667;28;20237;-94
2022/11/17 02:58:51;;;;;;;10.70;6.60;;;3.70;99.90;;;;;;5005269;28;20611;-86
2022/11/17 03:01:52;;;;;;;10.33;6.10;;;3.70;99.90;;;;;;5016213;28;20257;-94
2022/11/17 03:04:46;;;;;;;8.30;6.30;;;3.60;99.90;;;;;;5007022;28;20208;-95
2022/11/17 03:07:32;;;;;;;8.23;6.07;;;3.60;99.90;;;;;;5025631;28;20269;-95
2022/11/17 03:10:14;;;;;;;10.30;6.67;;;3.60;99.90;;;;;;5022741;28;20216;-94
2022/11/17 03:12:50;;;;;;;8.47;6.67;;;3.50;99.90;;;;;;5007461;28;20236;-95
2022/11/17 03:15:28;;;;;;;14.67;7.77;;;3.50;99.90;;;;;;5001310;28;20283;-93
2022/11/17 03:18:11;;;;;;;9.60;7.40;;;3.50;99.90;;;;;;5015797;28;20198;-92
2022/11/17 03:20:50;;;;;;;10.27;7.30;;;3.50;99.90;;;;;;5020366;28;20241;-95
2022/11/17 03:23:24;;;;;;;13.23;7.73;;;3.40;99.90;;;;;;5016431;28;20241;-94
2022/11/17 03:26:00;;;;;;;9.43;7.70;;;3.40;99.90;;;;;;5017436;28;20243;-94
2022/11/17 03:28:33;;;;;;;9.83;8.07;;;3.30;99.90;;;;;;5009442;28;20197;-92
2022/11/17 03:31:08;;;;;;;13.30;9.20;;;3.30;99.90;;;;;;5016968;28;20212;-93
2022/11/17 03:33:44;;;;;;;10.27;8.40;;;3.30;99.90;;;;;;5020090;28;20733;-94
2022/11/17 03:36:17;;;;;;;12.33;8.83;;;3.30;99.90;;;;;;5009992;28;20320;-95
2022/11/17 03:38:53;;;;;;;10.87;7.97;;;3.20;99.90;;;;;;5017448;28;20245;-94
2022/11/17 03:41:25;;;;;;;11.13;8.40;;;3.20;99.90;;;;;;5017431;28;20213;-92
2022/11/17 03:43:58;;;;;;;11.73;8.20;;;3.20;99.90;;;;;;5010523;28;20289;-93
2022/11/17 03:46:30;;;;;;;10.83;7.90;;;3.10;99.90;;;;;;5015330;28;20241;-93
2022/11/17 03:49:14;;;;;;;11.53;8.13;;;3.10;99.90;;;;;;5013969;28;20280;-95
2022/11/17 03:51:46;;;;;;;10.20;7.77;;;3.00;99.90;;;;;;5013615;28;20709;-93
2022/11/17 03:54:17;;;;;;;11.53;8.20;;;3.00;99.90;;;;;;5012882;28;20296;-94
2022/11/17 03:56:55;;;;;;;10.90;7.73;;;3.00;99.90;;;;;;5010606;28;20266;-93
2022/11/17 03:59:31;;;;;;;8.87;7.57;;;3.00;99.90;;;;;;5007528;28;20273;-95
2022/11/17 04:02:02;;;;;;;12.27;7.67;;;3.00;99.90;;;;;;5011940;28;20208;-94
2022/11/17 04:07:19;;;;;;;10.67;7.77;;;3.00;99.90;;;;;;5013042;28;20320;-94
2022/11/17 04:09:50;;;;;;;11.73;8.20;;;3.00;99.90;;;;;;5008585;28;20273;-94
2022/11/17 04:17:58;;;;;;;11.60;7.80;;;2.90;99.90;;;;;;5015833;28;20213;-94
2022/11/17 04:20:34;;;;;;;12.83;7.80;;;2.90;99.90;;;;;;5014646;28;20221;-95
2022/11/17 04:23:10;;;;;;;12.17;8.97;;;2.90;99.90;;;;;;5011516;28;20231;-94
2022/11/17 04:28:39;;;;;;;11.63;8.27;;;2.80;99.90;;;;;;5015046;28;20268;-93
2022/11/17 04:31:13;;;;;;;11.40;8.07;;;2.80;99.90;;;;;;5015451;28;20217;-95
2022/11/17 04:33:46;;;;;;;14.00;9.00;;;2.80;99.90;;;;;;5012569;28;20385;-92
2022/11/17 04:36:21;;;;;;;13.53;9.67;;;2.80;99.90;;;;;;4998436;28;20229;-94
2022/11/17 04:38:54;;;;;;;17.00;10.20;;;2.80;99.90;;;;;;5017555;28;20197;-92
2022/11/17 04:44:17;;;;;;;14.27;9.73;;;2.80;99.90;;;;;;4996888;28;20289;-94
2022/11/17 04:46:49;;;;;;;14.47;9.93;;;2.70;99.90;;;;;;5012967;28;20677;-94
2022/11/17 04:49:21;;;;;;;14.53;9.70;;;2.70;99.90;;;;;;5010400;28;20297;-92
2022/11/17 04:51:54;;;;;;;14.83;9.80;;;2.80;99.90;;;;;;5013611;28;20208;-93
2022/11/17 04:54:25;;;;;;;14.97;9.47;;;2.70;99.90;;;;;;5011162;28;20216;-93
2022/11/17 04:56:56;;;;;;;14.60;9.27;;;2.70;99.90;;;;;;5028068;28;20257;-92
2022/11/17 04:59:27;;;;;;;15.37;9.93;;;2.70;99.90;;;;;;5026301;28;20205;-94
2022/11/17 05:01:58;;;;;;;14.57;9.30;;;2.70;99.90;;;;;;5026919;28;20213;-95
2022/11/17 05:07:26;;;;;;;14.00;8.73;;;2.70;99.90;;;;;;5024946;28;20205;-93
2022/11/17 05:09:58;;;;;;;14.10;9.97;;;2.60;99.90;;;;;;5024832;28;20256;-94
2022/11/17 05:17:03;;;;;;;14.93;9.83;;;2.60;99.90;;;;;;5010807;28;20301;-94
2022/11/17 05:18:06;;;;;;;13.53;9.67;;;2.60;99.90;;;;;;5010548;28;20209;-94
2022/11/17 05:20:38;;;;;;;15.97;10.30;;;2.60;99.90;;;;;;5008674;28;20466;-95
2022/11/17 05:25:59;;;;;;;15.93;11.00;;;2.50;99.90;;;;;;5011071;28;20292;-94
2022/11/17 05:28:33;;;;;;;17.43;10.80;;;2.50;99.90;;;;;;5013819;28;20305;-92
2022/11/17 05:31:04;;;;;;;18.67;11.53;;;2.50;99.90;;;;;;5012041;28;20248;-94
2022/11/17 05:33:35;;;;;;;16.83;11.87;;;2.50;99.90;;;;;;5013389;28;20650;-93
2022/11/17 05:36:08;;;;;;;16.90;11.40;;;2.50;99.90;;;;;;5016533;28;20232;-94
2022/11/17 05:38:44;;;;;;;16.20;12.13;;;2.50;99.90;;;;;;5017586;28;20292;-94
2022/11/17 05:41:15;;;;;;;17.70;12.67;;;2.40;99.90;;;;;;5018734;28;20209;-94
2022/11/17 05:43:49;;;;;;;18.33;13.57;;;2.40;99.90;;;;;;5023965;28;20388;-96
2022/11/17 05:46:22;;;;;;;19.57;14.20;;;2.30;99.90;;;;;;5036728;28;20224;-94
2022/11/17 05:48:53;;;;;;;21.33;14.93;;;2.30;99.90;;;;;;5031324;28;20218;-94
2022/11/17 05:51:25;;;;;;;21.00;13.97;;;2.30;99.90;;;;;;5030824;28;20230;-93
2022/11/17 05:53:57;;;;;;;19.37;13.83;;;2.20;99.90;;;;;;5023797;28;20237;-94
2022/11/17 05:56:36;;;;;;;19.57;13.73;;;2.20;99.90;;;;;;5022697;28;20288;-94
2022/11/17 05:59:21;;;;;;;19.47;13.83;;;2.20;99.90;;;;;;5034667;28;20202;-94
2022/11/17 06:02:01;;;;;;;23.27;13.50;;;2.20;99.90;;;;;;5018918;28;20216;-93
2022/11/17 06:04:33;;;;;;;19.60;13.03;;;2.20;99.90;;;;;;5018722;28;20359;-93
2022/11/17 06:07:05;;;;;;;18.03;12.83;;;2.20;99.90;;;;;;5019643;28;20672;-93
2022/11/17 06:09:40;;;;;;;19.30;12.00;;;2.10;99.90;;;;;;5013210;28;20217;-94
2022/11/17 06:12:14;;;;;;;18.53;12.80;;;2.10;99.90;;;;;;5025386;28;20198;-93
2022/11/17 06:14:44;;;;;;;16.13;11.93;;;2.10;99.90;;;;;;5006857;28;20248;-94
2022/11/17 06:17:24;;;;;;;23.97;13.07;;;2.10;99.90;;;;;;5018890;28;20237;-95
2022/11/17 06:20:00;;;;;;;17.80;11.83;;;2.10;99.90;;;;;;5019478;28;20209;-94
2022/11/17 06:22:33;;;;;;;15.93;11.93;;;2.10;99.90;;;;;;5028850;28;20190;-96
2022/11/17 06:25:09;;;;;;;18.77;12.40;;;2.10;99.90;;;;;;5028609;28;21427;-94
2022/11/17 06:27:41;;;;;;;17.53;12.33;;;2.10;99.90;;;;;;5026312;28;20224;-93
2022/11/17 06:30:13;;;;;;;16.77;11.93;;;2.10;99.90;;;;;;5018755;28;20235;-94
2022/11/17 06:32:46;;;;;;;18.60;11.77;;;2.10;99.90;;;;;;5015545;28;20256;-94
2022/11/17 06:35:17;;;;;;;15.33;11.20;;;2.10;99.90;;;;;;5010643;28;20212;-94
2022/11/17 06:37:48;;;;;;;16.03;11.40;;;2.10;99.90;;;;;;5016599;28;20686;-94
2022/11/17 06:40:22;;;;;;;19.33;12.50;;;2.10;99.90;;;;;;4998587;28;20237;-94
2022/11/17 06:43:07;;;;;;;17.87;11.63;;;2.10;99.90;;;;;;5009527;28;20209;-95
2022/11/17 06:45:39;;;;;;;15.57;11.50;;;2.00;99.90;;;;;;5017214;28;20221;-93
2022/11/17 06:48:11;;;;;;;15.93;11.57;;;2.00;99.90;;;;;;5015024;28;20713;-95
2022/11/17 06:50:44;;;;;;;16.30;10.50;;;2.00;99.90;;;;;;4998766;28;20281;-94
2022/11/17 06:53:15;;;;;;;16.50;11.57;;;2.00;99.90;;;;;;5021320;28;20248;-94
2022/11/17 06:55:52;;;;;;;17.20;11.77;;;1.90;99.90;;;;;;5024839;28;20241;-95
2022/11/17 06:58:23;;;;;;;17.57;10.50;;;1.90;99.90;;;;;;5027280;28;20233;-94
2022/11/17 07:00:54;;;;;;;16.03;11.67;;;1.90;99.90;;;;;;5015263;28;20224;-94
2022/11/17 07:03:26;;;;;;;16.67;11.53;;;1.90;99.90;;;;;;5018525;28;20565;-95
2022/11/17 07:06:00;;;;;;;18.30;12.63;;;1.90;99.90;;;;;;5013874;28;20245;-95
2022/11/17 07:08:32;;;;;;;15.57;11.70;;;1.90;99.90;;;;;;5000274;28;20237;-95
2022/11/17 07:11:07;;;;;;;16.33;11.77;;;1.90;99.90;;;;;;5004781;28;20216;-95
2022/11/17 07:13:39;;;;;;;21.73;13.73;;;1.90;99.90;;;;;;5014382;28;20277;-94
2022/11/17 07:16:11;;;;;;;20.57;13.67;;;1.90;99.90;;;;;;5014025;28;20217;-94
2022/11/17 07:18:49;;;;;;;18.40;13.43;;;1.90;99.90;;;;;;5014350;28;20232;-94
2022/11/17 07:21:21;;;;;;;20.10;13.33;;;1.90;99.90;;;;;;5016108;28;20245;-94
2022/11/17 07:23:52;;;;;;;21.67;14.47;;;1.90;99.90;;;;;;5017221;28;20288;-94
2022/11/17 07:26:25;;;;;;;20.40;13.57;;;1.90;99.90;;;;;;5012665;28;20288;-94
2022/11/17 07:28:56;;;;;;;22.33;13.97;;;1.90;99.90;;;;;;5015667;28;21050;-93
2022/11/17 07:31:28;;;;;;;21.53;14.03;;;1.90;99.90;;;;;;5017908;28;20225;-95
2022/11/17 07:33:59;;;;;;;23.60;14.53;;;1.90;99.90;;;;;;5005545;28;20208;-95
2022/11/17 07:36:31;;;;;;;20.13;14.40;;;1.90;99.90;;;;;;5026041;28;20310;-95
2022/11/17 07:39:02;;;;;;;23.80;15.47;;;1.80;99.90;;;;;;5014992;28;20241;-94
2022/11/17 07:41:36;;;;;;;32.03;14.90;;;1.80;99.90;;;;;;5013042;28;20659;-95
2022/11/17 07:44:08;;;;;;;25.40;15.67;;;1.90;99.90;;;;;;5012386;28;20202;-95
2022/11/17 07:46:39;;;;;;;41.63;16.00;;;1.90;99.90;;;;;;5010244;28;20597;-94
2022/11/17 07:49:10;;;;;;;104.97;18.07;;;1.90;99.90;;;;;;5011617;28;20264;-94
2022/11/17 07:51:42;;;;;;;86.93;17.63;;;2.00;99.90;;;;;;5010450;28;20225;-87
2022/11/17 07:54:14;;;;;;;79.77;17.17;;;2.10;99.90;;;;;;5002499;28;20254;-94
2022/11/17 07:56:48;;;;;;;97.73;18.47;;;2.10;99.90;;;;;;5006802;28;20209;-92
2022/11/17 07:59:20;;;;;;;51.83;17.50;;;2.10;99.90;;;;;;5011897;28;20209;-91
2022/11/17 08:01:51;;;;;;;56.60;18.03;;;2.10;99.90;;;;;;4993139;28;20209;-93
2022/11/17 08:04:22;;;;;;;45.73;18.30;;;2.20;99.90;;;;;;4995194;28;20202;-92
2022/11/17 08:06:54;;;;;;;29.90;17.07;;;2.30;99.90;;;;;;5012973;28;20255;-92
2022/11/17 08:09:27;;;;;;;75.70;19.63;;;2.30;99.90;;;;;;5012874;28;20589;-92
2022/11/17 08:12:00;;;;;;;71.73;19.87;;;2.30;99.90;;;;;;5006464;28;20260;-94
2022/11/17 08:14:31;;;;;;;98.97;20.03;;;2.30;99.90;;;;;;5016619;28;20232;-92
2022/11/17 08:17:02;;;;;;;85.10;19.60;;;2.40;99.90;;;;;;5016799;28;20213;-93
2022/11/17 08:19:35;;;;;;;65.00;20.17;;;2.40;99.90;;;;;;5017721;28;20252;-92
2022/11/17 08:22:07;;;;;;;73.40;20.40;;;2.40;99.90;;;;;;5017185;28;20205;-93
2022/11/17 08:24:38;;;;;;;104.23;21.17;;;2.50;99.90;;;;;;5016963;28;20197;-93
2022/11/17 08:27:12;;;;;;;63.50;21.07;;;2.50;99.90;;;;;;5016568;28;20291;-92
2022/11/17 08:29:42;;;;;;;68.70;21.57;;;2.50;99.90;;;;;;5019899;28;20206;-93
2022/11/17 08:32:13;;;;;;;70.00;21.87;;;2.50;99.90;;;;;;5017492;28;20300;-92
2022/11/17 08:34:45;;;;;;;66.50;20.03;;;2.60;99.90;;;;;;5038792;28;20208;-94
2022/11/17 08:37:17;;;;;;;47.23;19.93;;;2.60;99.90;;;;;;5034117;28;20197;-92
2022/11/17 08:39:49;;;;;;;47.47;19.70;;;2.60;99.90;;;;;;5014055;28;20233;-92
2022/11/17 08:42:23;;;;;;;87.23;20.93;;;2.60;99.90;;;;;;5000375;28;20206;-93
2022/11/17 08:44:55;;;;;;;68.57;20.23;;;2.50;99.90;;;;;;5019355;28;20665;-92
2022/11/17 08:47:27;;;;;;;59.70;20.60;;;2.50;99.90;;;;;;5008229;28;20213;-92
2022/11/17 08:49:59;;;;;;;57.97;20.17;;;2.50;99.90;;;;;;5014141;28;20515;-92
2022/11/17 08:52:30;;;;;;;35.80;19.30;;;2.40;99.90;;;;;;5016071;28;20217;-92
2022/11/17 08:55:04;;;;;;;30.83;19.60;;;2.30;99.90;;;;;;5002802;28;20207;-91
2022/11/17 08:57:38;;;;;;;27.30;17.77;;;2.20;99.90;;;;;;5010073;28;20201;-88
2022/11/17 09:00:12;;;;;;;28.80;17.80;;;2.10;99.90;;;;;;5014817;28;20213;-93
2022/11/17 09:02:44;;;;;;;24.87;16.47;;;2.10;99.90;;;;;;5016878;28;20210;-92
2022/11/17 09:05:17;;;;;;;26.40;17.10;;;2.00;99.90;;;;;;5016964;28;20213;-92
2022/11/17 09:07:48;;;;;;;24.80;16.27;;;2.00;99.90;;;;;;5020130;28;20643;-93
2022/11/17 09:10:19;;;;;;;25.13;16.80;;;2.00;99.90;;;;;;5018947;28;20221;-91
2022/11/17 09:12:58;;;;;;;21.93;15.30;;;2.00;99.90;;;;;;5015565;28;20202;-91
2022/11/17 09:15:30;;;;;;;24.60;15.70;;;1.90;99.90;;;;;;5016230;28;20243;-91
2022/11/17 09:18:02;;;;;;;25.40;15.60;;;1.90;99.90;;;;;;5016510;28;20321;-93
2022/11/17 09:20:33;;;;;;;24.00;15.57;;;1.80;99.90;;;;;;5010916;28;20219;-93
2022/11/17 09:23:04;;;;;;;21.80;14.13;;;1.80;99.90;;;;;;4998818;28;20225;-93
2022/11/17 09:25:37;;;;;;;25.30;15.03;;;1.70;99.90;;;;;;5015640;28;20283;-93
2022/11/17 09:28:10;;;;;;;21.53;14.70;;;1.70;99.90;;;;;;5013007;28;20201;-94
2022/11/17 09:30:40;;;;;;;21.60;14.43;;;1.70;99.90;;;;;;5015898;28;20201;-92
2022/11/17 09:33:12;;;;;;;23.43;15.30;;;1.70;99.90;;;;;;5014933;28;20216;-92
2022/11/17 09:35:43;;;;;;;23.23;14.57;;;1.70;99.90;;;;;;5015675;28;20206;-93
2022/11/17 09:38:15;;;;;;;22.67;15.13;;;1.60;99.90;;;;;;5015081;28;20259;-93
2022/11/17 09:40:46;;;;;;;23.60;15.07;;;1.60;99.90;;;;;;5015748;28;20210;-93
2022/11/17 09:43:26;;;;;;;22.57;14.67;;;1.60;99.90;;;;;;5015632;28;20217;-93
2022/11/17 09:46:04;;;;;;;21.63;15.87;;;1.60;99.90;;;;;;5015146;28;20241;-93
2022/11/17 09:48:45;;;;;;;23.00;15.37;;;1.60;99.90;;;;;;5013799;28;20198;-93
2022/11/17 09:51:21;;;;;;;27.50;15.60;;;1.60;99.90;;;;;;5002410;28;20264;-92
2022/11/17 09:53:58;;;;;;;22.47;14.20;;;1.60;99.90;;;;;;5012104;28;20728;-93
2022/11/17 09:56:29;;;;;;;22.80;14.23;;;1.60;99.90;;;;;;5015004;28;20206;-93
2022/11/17 09:59:05;;;;;;;20.90;14.10;;;1.50;99.90;;;;;;5015005;28;20229;-93
2022/11/17 10:01:36;;;;;;;21.53;14.37;;;1.60;99.90;;;;;;5013177;28;20338;-93
2022/11/17 10:04:11;;;;;;;21.43;14.33;;;1.50;99.90;;;;;;5002304;28;20269;-93
2022/11/17 10:06:45;;;;;;;20.13;13.40;;;1.50;99.90;;;;;;5004124;28;20293;-92
2022/11/17 10:09:22;;;;;;;20.47;13.47;;;1.50;99.90;;;;;;5009468;28;20554;-93
2022/11/17 10:11:59;;;;;;;20.53;13.00;;;1.50;99.90;;;;;;5015650;28;20198;-93
2022/11/17 10:14:32;;;;;;;21.53;13.93;;;1.40;99.90;;;;;;5011457;28;20214;-93
2022/11/17 10:17:04;;;;;;;17.10;12.70;;;1.40;99.90;;;;;;5012126;28;20193;-93
2022/11/17 10:19:38;;;;;;;20.40;14.17;;;1.40;99.90;;;;;;5015630;28;20277;-93
2022/11/17 10:22:20;;;;;;;18.87;13.10;;;1.40;99.90;;;;;;5016477;28;20205;-93
2022/11/17 10:24:57;;;;;;;17.73;12.20;;;1.30;99.90;;;;;;5023176;28;20351;-93
2022/11/17 10:27:30;;;;;;;19.43;13.00;;;1.30;99.90;;;;;;5013429;28;20210;-93
2022/11/17 10:30:05;;;;;;;19.43;12.63;;;1.30;99.90;;;;;;5011943;28;20256;-94
2022/11/17 10:32:39;;;;;;;20.33;13.23;;;1.30;99.90;;;;;;5011579;28;20514;-94
2022/11/17 10:35:18;;;;;;;18.20;12.57;;;1.20;99.90;;;;;;5012804;28;20288;-92
2022/11/17 10:37:55;;;;;;;18.97;12.33;;;1.30;99.90;;;;;;5014116;28;20205;-93
2022/11/17 10:40:28;;;;;;;20.83;12.17;;;1.30;99.90;;;;;;5012429;28;20233;-93
2022/11/17 10:43:04;;;;;;;20.77;13.00;;;1.40;99.90;;;;;;5011566;28;20198;-93
2022/11/17 10:45:44;;;;;;;20.77;12.80;;;1.40;99.90;;;;;;5024151;28;20232;-92
2022/11/17 10:48:33;;;;;;;17.73;12.20;;;1.40;99.90;;;;;;5023831;28;20213;-93
2022/11/17 10:51:08;;;;;;;22.33;12.47;;;1.40;99.90;;;;;;5027088;28;20217;-93
2022/11/17 10:53:41;;;;;;;18.63;12.27;;;1.40;99.90;;;;;;5006121;28;20261;-93
2022/11/17 10:56:18;;;;;;;20.60;12.73;;;1.40;99.90;;;;;;4999910;28;20283;-93
2022/11/17 10:59:05;;;;;;;18.43;12.83;;;1.40;99.90;;;;;;5000139;28;20316;-94
2022/11/17 11:01:41;;;;;;;18.47;12.77;;;1.40;99.90;;;;;;5009357;28;20272;-93
2022/11/17 11:04:28;;;;;;;21.53;12.60;;;1.40;99.90;;;;;;5007407;28;20283;-93
2022/11/17 11:07:12;;;;;;;23.27;14.27;;;1.40;99.90;;;;;;5012135;28;20202;-93
2022/11/17 11:09:54;;;;;;;19.93;13.30;;;1.30;99.90;;;;;;5015593;28;20209;-92
2022/11/17 11:12:34;;;;;;;20.83;13.17;;;1.30;99.90;;;;;;5014087;28;20213;-94
2022/11/17 11:15:09;;;;;;;17.57;12.40;;;1.30;99.90;;;;;;5013836;28;20689;-92
2022/11/17 11:17:42;;;;;;;19.43;12.37;;;1.20;99.90;;;;;;5005384;28;20220;-93
2022/11/17 11:20:16;;;;;;;18.33;12.87;;;1.20;99.90;;;;;;5012707;28;20264;-93
2022/11/17 11:22:54;;;;;;;20.03;13.10;;;1.30;99.90;;;;;;5012889;28;20268;-94
2022/11/17 11:25:35;;;;;;;17.47;11.73;;;1.30;99.90;;;;;;5006418;28;20263;-93
2022/11/17 11:28:16;;;;;;;17.83;11.70;;;1.30;99.90;;;;;;4994401;28;20266;-94
2022/11/17 11:31:00;;;;;;;18.53;11.53;;;1.30;99.90;;;;;;5006677;28;20229;-93
2022/11/17 11:33:38;;;;;;;17.43;11.13;;;1.40;99.90;;;;;;5011732;28;20240;-92
2022/11/17 11:36:22;;;;;;;14.63;9.67;;;1.40;99.90;;;;;;5015908;28;20209;-93
2022/11/17 11:38:59;;;;;;;14.77;9.17;;;1.50;99.90;;;;;;5021022;28;20632;-93
2022/11/17 11:41:57;;;;;;;11.00;7.63;;;1.60;99.90;;;;;;5030542;28;20209;-94
2022/11/17 11:44:55;;;;;;;9.53;6.57;;;1.60;99.90;;;;;;5028107;28;20209;-93
2022/11/17 11:47:43;;;;;;;9.23;6.73;;;1.70;99.90;;;;;;5028211;28;20241;-92
2022/11/17 11:50:20;;;;;;;9.33;6.00;;;1.70;99.90;;;;;;5014819;28;20201;-92
2022/11/17 11:52:56;;;;;;;7.50;6.03;;;1.70;99.90;;;;;;5024170;28;20690;-93
2022/11/17 11:55:31;;;;;;;7.63;6.33;;;1.80;99.90;;;;;;5011874;28;20263;-91
2022/11/17 11:58:09;;;;;;;10.30;5.77;;;1.80;99.90;;;;;;4997243;28;20732;-92
2022/11/17 12:00:42;;;;;;;10.70;6.33;;;1.80;99.90;;;;;;4998385;28;20687;-94
2022/11/17 12:03:25;;;;;;;8.63;5.90;;;1.90;99.90;;;;;;5009784;28;20240;-94
2022/11/17 12:09:31;;;;;;;9.20;6.40;;;2.00;99.90;;;;;;5016631;28;20205;-92
2022/11/17 12:12:09;;;;;;;8.53;6.13;;;1.90;99.90;;;;;;5020469;22;20234;-93
2022/11/17 12:14:40;;;;;;;11.23;5.77;;;2.00;99.90;;;;;;5008910;28;20268;-93
2022/11/17 12:17:24;;;;;;;8.73;6.57;;;1.90;99.90;;;;;;5014155;28;20216;-93
2022/11/17 12:19:58;;;;;;;10.10;6.07;;;1.90;99.90;;;;;;5013665;28;20237;-94
2022/11/17 12:23:09;;;;;;;7.07;5.27;;;1.90;99.90;;;;;;5001528;28;20863;-93
2022/11/17 12:25:46;;;;;;;8.50;5.40;;;1.90;99.90;;;;;;4976988;28;20210;-93
2022/11/17 12:28:34;;;;;;;7.77;5.13;;;1.90;99.90;;;;;;5020452;28;20200;-91
2022/11/17 12:31:06;;;;;;;6.77;4.83;;;2.00;99.90;;;;;;5022700;28;20285;-93
2022/11/17 12:34:23;;;;;;;7.67;5.17;;;2.00;99.90;;;;;;4993188;28;20213;-92
2022/11/17 12:37:29;;;;;;;8.93;5.90;;;2.10;99.90;;;;;;4975123;28;20210;-93
2022/11/17 12:40:07;;;;;;;9.07;5.77;;;2.10;99.90;;;;;;5003883;28;20225;-93
2022/11/17 12:42:58;;;;;;;11.30;6.67;;;2.10;99.90;;;;;;5012501;28;20252;-92
2022/11/17 12:45:30;;;;;;;7.30;5.60;;;2.00;99.90;;;;;;5012569;28;20626;-93
2022/11/17 12:48:10;;;;;;;9.80;6.47;;;2.00;99.90;;;;;;4994048;28;20206;-93
2022/11/17 12:51:08;;;;;;;8.60;6.40;;;2.10;99.90;;;;;;5002418;28;20202;-92
2022/11/17 12:53:53;;;;;;;14.17;8.43;;;2.10;99.90;;;;;;5012395;28;20228;-92
2022/11/17 12:56:48;;;;;;;13.07;9.23;;;2.20;99.90;;;;;;5026383;28;20202;-93
2022/11/17 12:59:53;;;;;;;14.43;9.03;;;2.30;99.90;;;;;;5021388;28;20211;-93
2022/11/17 13:02:54;;;;;;;14.40;9.27;;;2.30;99.90;;;;;;5033784;28;20190;-92
2022/11/17 13:05:27;;;;;;;11.07;8.83;;;2.30;99.90;;;;;;5025087;28;20565;-93
2022/11/17 13:08:22;;;;;;;15.93;9.43;;;2.20;99.90;;;;;;5023671;28;20229;-93
2022/11/17 13:11:05;;;;;;;14.27;9.93;;;2.20;99.90;;;;;;4999492;28;20927;-91
2022/11/17 13:13:38;;;;;;;14.37;9.67;;;2.20;99.90;;;;;;5014917;28;20206;-91
2022/11/17 13:16:20;;;;;;;15.30;10.10;;;2.20;99.90;;;;;;5012851;28;20209;-93
2022/11/17 13:18:55;;;;;;;17.30;9.90;;;2.10;99.90;;;;;;5014455;28;20320;-92
2022/11/17 13:21:30;;;;;;;11.77;9.13;;;2.10;99.90;;;;;;5018150;28;20240;-93
2022/11/17 13:24:02;;;;;;;13.07;9.67;;;2.10;99.90;;;;;;5034154;28;20303;-93
2022/11/17 13:26:36;;;;;;;19.67;11.37;;;2.00;99.90;;;;;;5030224;28;20276;-93
2022/11/17 13:29:12;;;;;;;21.73;11.40;;;2.00;99.90;;;;;;5016366;28;20260;-92
2022/11/17 13:31:42;;;;;;;19.27;11.07;;;2.00;99.90;;;;;;5011238;28;20560;-91
2022/11/17 13:34:19;;;;;;;18.17;11.53;;;2.00;99.90;;;;;;4997101;28;20217;-92
2022/11/17 13:36:55;;;;;;;18.07;11.50;;;2.00;99.90;;;;;;5017891;28;20208;-92
2022/11/17 13:39:28;;;;;;;19.93;11.30;;;2.00;99.90;;;;;;5015827;28;20218;-92
2022/11/17 13:42:02;;;;;;;17.87;11.57;;;2.00;99.90;;;;;;5016841;28;20487;-94
2022/11/17 13:44:36;;;;;;;17.13;11.63;;;2.00;99.90;;;;;;5015356;28;20208;-93
2022/11/17 13:47:20;;;;;;;16.87;11.23;;;1.90;99.90;;;;;;5001787;28;20201;-92
2022/11/17 13:49:52;;;;;;;18.80;11.47;;;1.90;99.90;;;;;;5016052;28;20868;-93
2022/11/17 13:52:35;;;;;;;19.17;12.10;;;1.90;99.90;;;;;;5004499;28;20289;-92
2022/11/17 13:55:19;;;;;;;17.33;12.00;;;1.80;99.90;;;;;;5015962;28;20206;-92
2022/11/17 13:57:56;;;;;;;18.67;12.40;;;1.80;99.90;;;;;;5014158;28;20905;-93
2022/11/17 14:00:29;;;;;;;17.33;11.60;;;1.80;99.90;;;;;;5013342;28;20225;-93
2022/11/17 14:03:02;;;;;;;20.57;12.10;;;1.80;99.90;;;;;;5013602;28;20210;-92
2022/11/17 14:05:34;;;;;;;17.87;12.13;;;1.70;99.90;;;;;;5016216;28;20305;-93
2022/11/17 14:08:27;;;;;;;18.23;10.70;;;1.70;99.90;;;;;;4994396;28;20202;-93
2022/11/17 14:11:08;;;;;;;14.77;10.40;;;1.60;99.90;;;;;;5003733;28;20232;-92